Terminal Aerodrome Forecast
Issued by NWS

Home | Current Version | Previous Version | Text Only | Print | Product List | Glossary On
Versions: 1 2 3 4 5 6 7 8 9 10 11 12 13 14 15 16 17
542
FTUS45 KRIW 282335
TAFBPI
TAF
KBPI 282335Z 2900/2924 20011KT P6SM VCSH BKN040
     FM290400 VRB06KT P6SM BKN035
     FM290900 VRB06KT P6SM BKN025 OVC035
     FM291500 VRB04KT P6SM SCT070
     FM292200 10011KT P6SM VCSH BKN050=

USA.gov is the U.S. government's official web portal to all federal, state and local government web resources and services.